createdAt,value
2023-09-08T00:00:12.507Z,28.06
2023-09-08T00:05:17.707Z,28.09
2023-09-08T00:10:20.639Z,28.03
2023-09-08T00:15:24.948Z,27.90
2023-09-08T00:20:27.959Z,27.97
2023-09-08T00:25:31.011Z,27.97
2023-09-08T00:30:37.718Z,27.82
2023-09-08T00:35:40.810Z,27.83
2023-09-08T00:40:43.907Z,27.79
2023-09-08T00:45:49.178Z,27.77
2023-09-08T00:50:52.282Z,27.68
2023-09-08T00:55:56.747Z,27.77
2023-09-08T01:01:01.229Z,27.67
2023-09-08T01:06:05.712Z,27.65
2023-09-08T01:11:09.203Z,27.54
2023-09-08T01:16:13.493Z,27.58
2023-09-08T01:21:42.452Z,27.56
2023-09-08T01:26:47.689Z,27.52
2023-09-08T01:31:51.296Z,27.46
2023-09-08T01:36:55.075Z,27.41
2023-09-08T01:41:59.645Z,27.36
2023-09-08T01:47:02.647Z,27.34
2023-09-08T01:52:06.387Z,27.25
2023-09-08T01:57:10.794Z,27.26
2023-09-08T02:02:13.830Z,27.21
2023-09-08T02:07:16.768Z,27.23
2023-09-08T02:12:21.143Z,27.17
2023-09-08T02:17:24.912Z,27.18
2023-09-08T02:22:27.967Z,27.23
2023-09-08T02:27:32.562Z,27.11
2023-09-08T02:32:35.756Z,27.08
2023-09-08T02:37:38.806Z,27.04
2023-09-08T02:42:43.480Z,27.04
2023-09-08T02:47:47.847Z,27.03
2023-09-08T02:52:51.793Z,27.07
2023-09-08T02:57:56.545Z,26.93
2023-09-08T03:02:59.537Z,26.94
2023-09-08T03:08:03.340Z,27.00
2023-09-08T03:13:08.183Z,26.97
2023-09-08T03:18:11.185Z,26.88
2023-09-08T03:23:14.097Z,26.95
2023-09-08T03:28:18.589Z,26.77
2023-09-08T03:33:21.789Z,26.82
2023-09-08T03:38:25.911Z,26.75
2023-09-08T03:43:31.621Z,26.64
2023-09-08T03:48:34.582Z,26.53
2023-09-08T03:53:38.324Z,26.36
2023-09-08T03:58:43.227Z,26.33
2023-09-08T04:03:46.317Z,26.22
2023-09-08T04:08:49.456Z,26.11
2023-09-08T04:13:54.385Z,26.13
2023-09-08T04:18:57.706Z,26.10
2023-09-08T04:24:00.730Z,26.01
2023-09-08T04:29:05.418Z,25.92
2023-09-08T04:34:08.455Z,25.91
2023-09-08T04:39:12.673Z,25.90
2023-09-08T04:44:17.337Z,25.68
2023-09-08T04:49:20.444Z,25.60
2023-09-08T04:54:23.588Z,25.61
2023-09-08T04:59:28.055Z,25.65
2023-09-08T05:04:31.243Z,25.61
2023-09-08T05:09:35.494Z,25.62
2023-09-08T05:14:40.160Z,25.59
2023-09-08T05:19:43.431Z,25.56
2023-09-08T05:24:46.487Z,25.52
2023-09-08T05:29:52.445Z,25.51
2023-09-08T05:34:56.405Z,25.51
2023-09-08T05:39:59.993Z,25.51
2023-09-08T05:45:04.829Z,25.24
2023-09-08T05:50:08.895Z,24.96
2023-09-08T05:55:11.981Z,24.89
2023-09-08T06:00:17.606Z,24.86
2023-09-08T06:05:25.292Z,24.95
2023-09-08T06:10:28.252Z,24.77
2023-09-08T06:15:32.833Z,24.52
2023-09-08T06:20:36.492Z,24.48
2023-09-08T06:25:39.628Z,24.57
2023-09-08T06:30:44.612Z,24.67
2023-09-08T06:35:48.356Z,24.68
2023-09-08T06:40:54.131Z,24.58
2023-09-08T06:45:59.243Z,24.57
2023-09-08T06:51:02.357Z,24.76
2023-09-08T06:56:05.882Z,24.88
2023-09-08T07:01:11.994Z,24.92
2023-09-08T07:06:15.512Z,24.92
2023-09-08T07:11:18.708Z,25.01
2023-09-08T07:16:24.726Z,25.15
2023-09-08T07:21:27.949Z,25.21
2023-09-08T07:26:31.538Z,25.25
2023-09-08T07:31:36.441Z,25.41
2023-09-08T07:36:39.502Z,25.51
2023-09-08T07:41:42.708Z,25.54
2023-09-08T07:46:50.115Z,25.53
2023-09-08T07:51:53.226Z,25.55
2023-09-08T07:56:56.216Z,25.69
2023-09-08T08:02:00.589Z,25.63
2023-09-08T08:07:03.701Z,25.70
2023-09-08T08:12:07.030Z,25.69
2023-09-08T08:17:12.360Z,25.77
2023-09-08T08:22:15.422Z,25.84
2023-09-08T08:27:18.586Z,25.83
2023-09-08T08:32:23.020Z,25.97
2023-09-08T08:37:27.090Z,26.11
2023-09-08T08:42:33.653Z,26.07
2023-09-08T08:47:38.643Z,26.06
2023-09-08T08:52:42.071Z,26.04
2023-09-08T08:57:47.424Z,26.08
2023-09-08T09:03:03.625Z,26.10
2023-09-08T09:08:16.146Z,26.05
2023-09-08T09:13:19.422Z,26.07
2023-09-08T09:18:23.903Z,26.17
2023-09-08T09:23:31.162Z,26.29
2023-09-08T09:28:34.501Z,26.30
2023-09-08T09:33:39.381Z,26.40
2023-09-08T09:38:42.414Z,26.27
2023-09-08T09:43:45.901Z,26.38
2023-09-08T09:48:54.165Z,26.44
2023-09-08T09:53:59.689Z,26.48
2023-09-08T09:59:05.286Z,26.49
2023-09-08T10:04:09.948Z,26.53
2023-09-08T10:09:14.900Z,26.53
2023-09-08T10:14:19.682Z,26.62
2023-09-08T10:19:25.563Z,26.57
2023-09-08T10:24:43.110Z,26.67
2023-09-08T10:29:55.371Z,26.61
2023-09-08T10:35:02.010Z,26.65
2023-09-08T10:40:25.125Z,26.69
2023-09-08T10:45:28.365Z,26.72
2023-09-08T10:50:38.043Z,26.73
2023-09-08T10:55:54.114Z,26.79
2023-09-08T11:01:05.497Z,26.91
2023-09-08T11:06:10.689Z,26.85
2023-09-08T11:11:14.904Z,26.84
2023-09-08T11:16:22.778Z,26.79
2023-09-08T11:21:28.117Z,26.76
2023-09-08T11:26:31.134Z,26.79
2023-09-08T11:31:35.827Z,26.79
2023-09-08T11:36:40.415Z,26.78
2023-09-08T11:41:43.754Z,26.79
2023-09-08T11:46:47.363Z,26.77
2023-09-08T11:51:52.005Z,26.80
2023-09-08T11:56:55.791Z,26.82
2023-09-08T12:01:59.490Z,26.86
2023-09-08T12:07:04.127Z,26.96
2023-09-08T12:12:14.569Z,27.15
2023-09-08T12:17:19.202Z,27.28
2023-09-08T12:22:23.885Z,27.24
2023-09-08T12:27:27.117Z,27.11
2023-09-08T12:32:32.364Z,27.23
2023-09-08T12:37:37.261Z,27.20
2023-09-08T12:42:41.705Z,27.11
2023-09-08T12:47:50.094Z,27.21
2023-09-08T12:52:54.553Z,27.14
2023-09-08T12:57:58.463Z,27.11
2023-09-08T13:03:03.089Z,27.07
2023-09-08T13:08:07.817Z,27.26
2023-09-08T13:13:10.881Z,27.01
2023-09-08T13:18:14.105Z,27.01
2023-09-08T13:23:18.541Z,27.25
2023-09-08T13:28:21.426Z,27.30
2023-09-08T13:33:24.381Z,27.13
2023-09-08T13:38:31.760Z,27.35
2023-09-08T13:43:34.790Z,27.54
2023-09-08T13:48:39.041Z,27.71
2023-09-08T13:53:47.332Z,27.62
2023-09-08T13:58:52.028Z,27.76
2023-09-08T14:04:04.039Z,27.81
2023-09-08T14:14:20.933Z,27.93
2023-09-08T14:19:23.912Z,28.13
2023-09-08T14:24:28.173Z,28.18
2023-09-08T14:29:31.080Z,28.33
2023-09-08T14:34:33.900Z,28.56
2023-09-08T14:39:38.085Z,28.65
2023-09-08T14:44:41.000Z,28.79
2023-09-08T14:49:43.901Z,28.96
2023-09-08T14:54:55.675Z,29.10
2023-09-08T14:59:58.830Z,29.13
2023-09-08T15:05:01.720Z,29.25
2023-09-08T15:10:06.530Z,29.38
2023-09-08T15:15:10.549Z,29.49
2023-09-08T15:20:14.384Z,29.58
2023-09-08T15:25:18.917Z,29.65
2023-09-08T15:30:21.936Z,29.72
2023-09-08T15:35:24.718Z,29.77
2023-09-08T15:40:28.946Z,29.83
2023-09-08T15:45:31.861Z,29.88
2023-09-08T15:50:34.802Z,29.96
2023-09-08T15:55:38.932Z,30.05
2023-09-08T16:00:43.062Z,30.10
2023-09-08T16:05:45.877Z,30.16
2023-09-08T16:10:50.213Z,30.32
2023-09-08T16:15:53.071Z,30.89
2023-09-08T16:20:55.933Z,31.25
2023-09-08T16:26:00.238Z,31.48
2023-09-08T16:31:06.711Z,31.59
2023-09-08T16:36:10.307Z,31.68
2023-09-08T16:41:14.592Z,31.71
2023-09-08T16:46:17.815Z,31.63
2023-09-08T16:51:20.583Z,31.54
2023-09-08T16:56:24.698Z,31.45
2023-09-08T17:01:27.815Z,31.38
2023-09-08T17:06:31.152Z,31.27
2023-09-08T17:11:38.222Z,31.20
2023-09-08T17:16:41.280Z,31.21
2023-09-08T17:21:44.300Z,31.10
2023-09-08T17:26:49.490Z,31.11
2023-09-08T17:31:52.351Z,31.02
2023-09-08T17:36:57.135Z,31.02
2023-09-08T17:42:01.255Z,31.11
2023-09-08T17:47:06.923Z,31.08
2023-09-08T17:52:09.742Z,31.00
2023-09-08T17:57:14.010Z,30.92
2023-09-08T18:02:16.870Z,30.95
2023-09-08T18:07:20.099Z,30.88
2023-09-08T18:12:24.448Z,30.80
2023-09-08T18:17:28.358Z,30.89
2023-09-08T18:22:31.475Z,30.50
2023-09-08T18:27:35.866Z,30.56
2023-09-08T18:32:38.790Z,30.66
2023-09-08T18:37:42.543Z,30.64
2023-09-08T18:42:46.756Z,30.63
2023-09-08T18:47:50.076Z,30.54
2023-09-08T18:52:55.737Z,30.42
2023-09-08T18:57:59.974Z,30.30
2023-09-08T19:03:02.999Z,30.36
2023-09-08T19:08:05.988Z,30.37
2023-09-08T19:13:10.206Z,30.50
2023-09-08T19:18:13.376Z,30.56
2023-09-08T19:23:16.234Z,30.60
2023-09-08T19:28:20.392Z,30.56
2023-09-08T19:33:23.438Z,30.49
2023-09-08T19:38:26.316Z,30.57
2023-09-08T19:43:30.402Z,30.48
2023-09-08T19:48:35.478Z,30.55
2023-09-08T19:53:38.699Z,30.52
2023-09-08T19:58:43.502Z,30.42
2023-09-08T20:03:46.459Z,30.36
2023-09-08T20:08:49.352Z,30.46
2023-09-08T20:13:55.088Z,30.38
2023-09-08T20:18:57.905Z,30.34
2023-09-08T20:24:02.625Z,30.34
2023-09-08T20:29:06.890Z,30.31
2023-09-08T20:34:15.404Z,30.34
2023-09-08T20:39:18.305Z,30.33
2023-09-08T20:44:22.668Z,30.30
2023-09-08T20:49:25.666Z,30.28
2023-09-08T20:54:29.685Z,30.35
2023-09-08T20:59:34.308Z,30.31
2023-09-08T21:04:37.185Z,30.30
2023-09-08T21:09:40.271Z,30.29
2023-09-08T21:14:44.745Z,30.32
2023-09-08T21:19:47.759Z,30.20
2023-09-08T21:24:50.559Z,30.22
2023-09-08T21:29:56.251Z,30.19
2023-09-08T21:34:59.139Z,30.27
2023-09-08T21:40:02.444Z,30.19
2023-09-08T21:45:08.005Z,30.25
2023-09-08T21:50:11.337Z,30.22
2023-09-08T21:55:14.364Z,30.14
2023-09-08T22:00:22.020Z,30.16
2023-09-08T22:05:25.073Z,30.09
2023-09-08T22:10:27.988Z,30.07
2023-09-08T22:15:32.244Z,30.09
2023-09-08T22:20:35.186Z,30.06
2023-09-08T22:25:37.923Z,30.12
2023-09-08T22:30:42.154Z,29.99
2023-09-08T22:35:44.906Z,29.94
2023-09-08T22:40:47.756Z,29.73
2023-09-08T22:45:52.293Z,29.72
2023-09-08T22:50:55.562Z,29.69
2023-09-08T22:55:58.528Z,29.45
2023-09-08T23:01:02.712Z,29.45
2023-09-08T23:06:05.638Z,29.27
2023-09-08T23:11:08.443Z,29.23
2023-09-08T23:16:14.611Z,29.08
2023-09-08T23:21:17.375Z,29.21
2023-09-08T23:26:20.184Z,29.20
2023-09-08T23:31:24.450Z,29.17
2023-09-08T23:36:27.595Z,28.89
2023-09-08T23:41:30.506Z,28.84
2023-09-08T23:46:34.917Z,28.92
2023-09-08T23:51:38.423Z,28.85
2023-09-08T23:56:41.316Z,28.80
